Time;durP1;ratioP1;P1;durP2;ratioP2;P2;SDS_P1;SDS_P2;PMS_P1;PMS_P2;Temp;Humidity;BMP_temperature;BMP_pressure;BME280_temperature;BME280_humidity;BME280_pressure;Samples;Min_cycle;Max_cycle;Signal;HPM_P1;HPM_P2
2023/06/28 00:01:54;;;;;;;5.13;2.30;;;14.40;99.90;;;;;;5204459;28;20199;-47
2023/06/28 00:04:25;;;;;;;4.20;2.20;;;14.40;99.90;;;;;;5198881;28;20180;-48
2023/06/28 00:06:55;;;;;;;5.30;1.83;;;14.40;99.90;;;;;;5202298;28;20253;-47
2023/06/28 00:09:27;;;;;;;1.77;1.63;;;14.40;99.90;;;;;;5197802;28;20187;-48
2023/06/28 00:11:58;;;;;;;5.13;2.77;;;14.30;99.90;;;;;;5193863;28;20203;-47
2023/06/28 00:14:28;;;;;;;3.50;2.30;;;14.30;99.90;;;;;;5205308;28;20999;-49
2023/06/28 00:17:02;;;;;;;2.97;2.27;;;14.30;99.90;;;;;;5203201;28;20179;-48
2023/06/28 00:19:32;;;;;;;2.10;2.00;;;14.30;99.90;;;;;;5198733;28;20643;-48
2023/06/28 00:22:04;;;;;;;9.17;2.30;;;14.30;99.90;;;;;;5189676;28;20474;-47
2023/06/28 00:24:34;;;;;;;8.27;2.80;;;14.30;99.90;;;;;;5201838;28;20582;-47
2023/06/28 00:27:07;;;;;;;5.60;2.67;;;14.30;99.90;;;;;;5195752;28;20501;-48
2023/06/28 00:29:38;;;;;;;6.67;2.33;;;14.20;99.90;;;;;;5175827;28;20357;-48
2023/06/28 00:32:08;;;;;;;8.37;2.90;;;14.30;99.90;;;;;;5201617;28;20548;-48
2023/06/28 00:34:39;;;;;;;3.23;2.93;;;14.30;99.90;;;;;;5201573;28;20211;-48
2023/06/28 00:37:10;;;;;;;4.23;2.57;;;14.30;99.90;;;;;;5196012;28;20334;-48
2023/06/28 00:39:40;;;;;;;3.30;2.70;;;14.30;99.90;;;;;;5204227;28;20207;-49
2023/06/28 00:42:11;;;;;;;5.70;2.57;;;14.30;99.90;;;;;;5202285;28;20207;-47
2023/06/28 00:44:42;;;;;;;5.97;2.53;;;14.30;99.90;;;;;;5208480;28;20237;-48
2023/06/28 00:47:14;;;;;;;6.23;2.47;;;14.20;99.90;;;;;;5211248;28;20183;-47
2023/06/28 00:49:46;;;;;;;6.03;2.93;;;14.20;99.90;;;;;;5208333;28;20706;-46
2023/06/28 00:52:17;;;;;;;2.53;2.33;;;14.20;99.90;;;;;;5205812;28;20550;-48
2023/06/28 00:54:47;;;;;;;5.70;2.43;;;14.10;99.90;;;;;;5206777;28;20899;-48
2023/06/28 00:57:18;;;;;;;6.30;2.03;;;14.10;99.90;;;;;;5205563;28;20184;-48
2023/06/28 00:59:51;;;;;;;5.90;2.47;;;14.10;99.90;;;;;;5201422;28;20632;-47
2023/06/28 01:02:22;;;;;;;5.53;2.40;;;14.10;99.90;;;;;;5206675;28;20206;-48
2023/06/28 01:04:57;;;;;;;7.10;2.67;;;14.10;99.90;;;;;;5209654;28;20524;-48
2023/06/28 01:07:29;;;;;;;6.00;2.93;;;14.10;99.90;;;;;;5207546;28;20286;-47
2023/06/28 01:10:00;;;;;;;4.20;2.60;;;14.10;99.90;;;;;;5208638;28;20926;-46
2023/06/28 01:12:32;;;;;;;3.07;2.73;;;14.00;99.90;;;;;;5206530;28;20441;-48
2023/06/28 01:15:03;;;;;;;3.67;2.50;;;14.00;99.90;;;;;;5204853;28;20473;-46
2023/06/28 01:17:34;;;;;;;11.43;3.00;;;14.10;99.90;;;;;;5203585;28;20445;-47
2023/06/28 01:20:05;;;;;;;2.37;2.13;;;14.10;99.90;;;;;;5201452;28;20435;-48
2023/06/28 01:22:40;;;;;;;11.37;2.73;;;14.10;99.90;;;;;;5210670;28;20200;-47
2023/06/28 01:25:11;;;;;;;3.10;2.13;;;14.10;99.90;;;;;;5210606;28;20519;-49
2023/06/28 01:27:44;;;;;;;3.60;2.37;;;14.10;99.90;;;;;;5193753;28;20455;-47
2023/06/28 01:30:15;;;;;;;5.80;2.57;;;14.10;99.90;;;;;;5207761;28;20184;-46
2023/06/28 01:32:46;;;;;;;9.53;3.20;;;14.10;99.90;;;;;;5212716;28;20496;-48
2023/06/28 01:35:17;;;;;;;3.00;2.50;;;14.10;99.90;;;;;;5211860;28;20498;-47
2023/06/28 01:37:49;;;;;;;7.53;3.27;;;14.20;99.90;;;;;;5204677;28;20237;-48
2023/06/28 01:40:20;;;;;;;7.37;2.70;;;14.20;99.90;;;;;;5205274;28;20191;-47
2023/06/28 01:42:51;;;;;;;6.03;2.53;;;14.00;99.90;;;;;;5209433;28;20470;-47
2023/06/28 01:45:22;;;;;;;7.37;2.20;;;14.00;99.90;;;;;;5218216;28;20444;-47
2023/06/28 01:47:52;;;;;;;10.03;2.33;;;14.00;99.90;;;;;;5197907;28;20172;-47
2023/06/28 01:50:23;;;;;;;4.87;2.53;;;14.00;99.90;;;;;;5199343;28;20555;-48
2023/06/28 01:53:03;;;;;;;8.13;2.77;;;13.90;99.90;;;;;;5190259;28;20204;-48
2023/06/28 01:55:33;;;;;;;2.93;2.63;;;13.90;99.90;;;;;;5206365;28;20472;-47
2023/06/28 01:58:04;;;;;;;4.90;2.83;;;13.90;99.90;;;;;;5209373;28;20414;-47
2023/06/28 02:00:35;;;;;;;2.50;2.03;;;13.90;99.90;;;;;;5199865;28;20606;-48
2023/06/28 02:03:05;;;;;;;2.03;1.93;;;13.90;99.90;;;;;;5195386;28;20518;-48
2023/06/28 02:05:36;;;;;;;18.97;3.47;;;13.90;99.90;;;;;;5208301;28;20187;-48
2023/06/28 02:08:07;;;;;;;10.20;3.20;;;13.90;99.90;;;;;;5202231;28;20185;-47
2023/06/28 02:10:38;;;;;;;3.07;2.87;;;13.80;99.90;;;;;;5204193;28;20203;-47
2023/06/28 02:13:09;;;;;;;4.70;1.90;;;13.80;99.90;;;;;;5203687;28;20218;-47
2023/06/28 02:15:41;;;;;;;15.23;2.57;;;13.80;99.90;;;;;;5200395;28;20457;-47
2023/06/28 02:18:16;;;;;;;4.80;2.27;;;13.70;99.90;;;;;;5201549;28;20168;-47
2023/06/28 02:20:47;;;;;;;2.40;2.10;;;13.80;99.90;;;;;;5207665;28;20525;-47
2023/06/28 02:23:22;;;;;;;6.43;2.40;;;13.80;99.90;;;;;;5198888;28;20419;-47
2023/06/28 02:25:52;;;;;;;15.30;2.97;;;13.90;99.90;;;;;;5212043;28;20484;-48
2023/06/28 02:28:23;;;;;;;5.20;2.40;;;13.90;99.90;;;;;;5183420;28;20427;-48
2023/06/28 02:30:54;;;;;;;8.33;2.37;;;14.00;99.90;;;;;;5208721;28;20290;-49
2023/06/28 02:33:24;;;;;;;4.17;2.40;;;14.00;99.90;;;;;;5206693;28;20256;-48
2023/06/28 02:35:55;;;;;;;6.70;2.70;;;14.00;99.90;;;;;;5208753;28;20211;-49
2023/06/28 02:38:26;;;;;;;6.43;2.33;;;14.10;99.90;;;;;;5204356;28;20557;-47
2023/06/28 02:40:56;;;;;;;7.80;2.50;;;14.10;99.90;;;;;;5198074;28;20200;-46
2023/06/28 02:43:27;;;;;;;7.90;2.77;;;14.10;99.90;;;;;;5206863;28;20572;-47
2023/06/28 02:45:58;;;;;;;9.07;2.80;;;14.10;99.90;;;;;;5194558;28;20196;-48
2023/06/28 02:48:28;;;;;;;4.23;2.23;;;14.20;99.90;;;;;;5204294;28;20186;-47
2023/06/28 02:50:59;;;;;;;2.83;2.03;;;14.10;99.90;;;;;;5207502;28;20207;-48
2023/06/28 02:53:31;;;;;;;7.33;2.37;;;14.20;99.90;;;;;;5206844;28;20195;-47
2023/06/28 02:56:01;;;;;;;6.93;2.33;;;14.20;99.90;;;;;;5203688;28;20231;-47
2023/06/28 02:58:32;;;;;;;3.67;2.33;;;14.20;99.90;;;;;;5197875;28;20439;-47
2023/06/28 03:01:03;;;;;;;8.17;2.00;;;14.20;99.90;;;;;;5196971;28;20284;-46
2023/06/28 03:03:34;;;;;;;9.20;2.20;;;14.20;99.90;;;;;;5208802;28;20176;-47
2023/06/28 03:06:05;;;;;;;7.67;2.10;;;14.20;99.90;;;;;;5209216;28;21005;-47
2023/06/28 03:08:36;;;;;;;4.73;2.77;;;14.20;99.90;;;;;;5189900;28;20199;-48
2023/06/28 03:11:07;;;;;;;5.10;2.90;;;14.20;99.90;;;;;;5202993;28;20525;-48
2023/06/28 03:13:38;;;;;;;7.33;2.27;;;14.20;99.90;;;;;;5202633;28;20547;-48
2023/06/28 03:16:08;;;;;;;2.30;2.10;;;14.30;99.90;;;;;;5200073;28;20447;-48
2023/06/28 03:18:39;;;;;;;4.23;2.30;;;14.20;99.90;;;;;;5203602;28;20195;-48
2023/06/28 03:21:09;;;;;;;2.13;1.93;;;14.20;99.90;;;;;;5202459;28;20287;-48
2023/06/28 03:23:40;;;;;;;5.97;2.37;;;14.30;99.90;;;;;;5204241;28;20225;-47
2023/06/28 03:26:11;;;;;;;9.73;2.57;;;14.20;99.90;;;;;;5196595;28;20184;-47
2023/06/28 03:28:41;;;;;;;2.63;1.93;;;14.30;99.90;;;;;;5204141;28;20188;-47
2023/06/28 03:31:12;;;;;;;7.03;2.97;;;14.40;99.90;;;;;;5202064;28;20546;-48
2023/06/28 03:33:42;;;;;;;4.63;1.93;;;14.30;99.90;;;;;;5207027;28;20203;-47
2023/06/28 03:36:14;;;;;;;4.00;2.30;;;14.40;99.90;;;;;;5206250;28;20187;-47
2023/06/28 03:38:45;;;;;;;4.13;2.27;;;14.40;99.90;;;;;;5199802;28;20544;-47
2023/06/28 03:41:15;;;;;;;4.70;2.10;;;14.30;99.90;;;;;;5205479;28;20457;-47
2023/06/28 03:43:46;;;;;;;7.77;2.13;;;14.30;99.90;;;;;;5203694;28;20188;-47
2023/06/28 03:46:17;;;;;;;6.07;2.70;;;14.40;99.90;;;;;;5204321;28;20277;-48
2023/06/28 03:48:47;;;;;;;8.43;2.40;;;14.40;99.90;;;;;;5200574;28;20876;-48
2023/06/28 03:51:18;;;;;;;4.70;2.20;;;14.40;99.90;;;;;;5198820;28;20201;-47
2023/06/28 03:53:49;;;;;;;9.50;2.50;;;14.40;99.90;;;;;;5191371;28;20184;-47
2023/06/28 03:56:19;;;;;;;7.53;2.33;;;14.40;99.90;;;;;;5205478;28;20644;-48
2023/06/28 03:58:50;;;;;;;3.47;2.40;;;14.40;99.90;;;;;;5194153;28;20239;-49
2023/06/28 04:01:21;;;;;;;4.33;2.30;;;14.40;99.90;;;;;;5205410;28;20206;-48
2023/06/28 04:03:52;;;;;;;6.53;2.33;;;14.50;99.90;;;;;;5204766;28;20438;-48
2023/06/28 04:06:22;;;;;;;11.20;2.97;;;14.40;99.90;;;;;;5196535;28;20182;-47
2023/06/28 04:08:53;;;;;;;2.93;2.10;;;14.40;99.90;;;;;;5203847;28;20180;-47
2023/06/28 04:11:23;;;;;;;11.57;2.70;;;14.50;99.90;;;;;;5198482;28;20212;-46
2023/06/28 04:13:54;;;;;;;3.97;2.00;;;14.50;99.90;;;;;;5189861;28;20188;-46
2023/06/28 04:16:25;;;;;;;5.50;2.20;;;14.60;99.90;;;;;;5200462;28;20684;-48
2023/06/28 04:18:55;;;;;;;4.63;2.27;;;14.60;99.90;;;;;;5208119;28;20229;-47
2023/06/28 04:21:26;;;;;;;2.27;2.17;;;14.60;99.90;;;;;;5207376;28;20589;-48
2023/06/28 04:23:57;;;;;;;12.57;2.57;;;14.60;99.90;;;;;;5200604;28;20262;-47
2023/06/28 04:26:27;;;;;;;3.33;2.80;;;14.70;99.90;;;;;;5204765;28;20202;-47
2023/06/28 04:28:58;;;;;;;7.67;2.60;;;14.70;99.90;;;;;;5207991;28;20192;-47
2023/06/28 04:31:29;;;;;;;11.60;2.87;;;14.70;99.90;;;;;;5199654;28;20688;-48
2023/06/28 04:34:01;;;;;;;5.13;2.20;;;14.80;99.90;;;;;;5203353;28;20231;-48
2023/06/28 04:36:31;;;;;;;6.13;2.27;;;14.80;99.90;;;;;;5207328;28;20855;-47
2023/06/28 04:39:03;;;;;;;3.47;2.37;;;14.90;99.90;;;;;;5211247;28;20415;-47
2023/06/28 04:41:33;;;;;;;9.23;3.43;;;14.80;99.90;;;;;;5207850;28;20211;-48
2023/06/28 04:44:09;;;;;;;6.27;2.43;;;14.90;99.90;;;;;;5204011;28;20786;-47
2023/06/28 04:46:44;;;;;;;8.20;2.40;;;14.90;99.90;;;;;;5209777;28;20232;-47
2023/06/28 04:49:15;;;;;;;13.13;2.73;;;15.00;99.90;;;;;;5204309;28;20439;-48
2023/06/28 04:51:45;;;;;;;6.50;2.30;;;15.10;99.90;;;;;;5202531;28;20470;-47
2023/06/28 04:54:16;;;;;;;5.70;2.03;;;15.20;99.90;;;;;;5195215;28;20878;-48
2023/06/28 04:56:47;;;;;;;7.30;2.80;;;15.30;99.90;;;;;;5208958;28;20179;-47
2023/06/28 04:59:17;;;;;;;2.30;2.00;;;15.40;99.90;;;;;;5207854;28;20187;-47
2023/06/28 05:01:48;;;;;;;8.47;2.40;;;15.40;99.90;;;;;;5208229;28;20206;-48
2023/06/28 05:04:19;;;;;;;5.37;2.50;;;15.40;99.90;;;;;;5201512;28;20176;-48
2023/06/28 05:06:51;;;;;;;12.43;2.23;;;15.50;99.90;;;;;;5207642;28;20180;-47
2023/06/28 05:09:22;;;;;;;5.80;2.40;;;15.50;99.90;;;;;;5197949;28;20218;-47
2023/06/28 05:11:53;;;;;;;5.13;2.20;;;15.60;99.90;;;;;;5196049;28;21000;-47
2023/06/28 05:14:25;;;;;;;5.40;2.57;;;15.70;99.90;;;;;;5207732;28;20497;-48
2023/06/28 05:16:56;;;;;;;16.20;2.40;;;15.90;99.90;;;;;;5190961;28;20763;-47
2023/06/28 05:19:26;;;;;;;3.60;2.50;;;16.10;99.90;;;;;;5185427;28;20438;-47
2023/06/28 05:21:57;;;;;;;3.90;2.50;;;16.20;99.90;;;;;;5208159;28;20446;-47
2023/06/28 05:24:28;;;;;;;1.90;1.80;;;16.40;99.90;;;;;;5208744;28;20180;-47
2023/06/28 05:26:58;;;;;;;3.33;2.03;;;16.40;99.90;;;;;;5194298;28;20202;-47
2023/06/28 05:29:29;;;;;;;2.93;2.20;;;16.20;99.90;;;;;;5208901;28;20281;-48
2023/06/28 05:31:59;;;;;;;6.23;2.13;;;16.40;99.90;;;;;;5203378;28;20222;-48
2023/06/28 05:34:30;;;;;;;4.50;2.37;;;16.70;99.90;;;;;;5208788;28;20217;-48
2023/06/28 05:37:00;;;;;;;5.23;2.07;;;17.00;99.90;;;;;;5204738;28;20556;-48
2023/06/28 05:39:31;;;;;;;9.83;1.73;;;17.30;99.90;;;;;;5201712;28;20180;-49
2023/06/28 05:42:02;;;;;;;3.87;2.00;;;17.50;99.90;;;;;;5203125;28;20215;-48
2023/06/28 05:44:33;;;;;;;3.63;2.03;;;17.70;99.90;;;;;;5198913;28;20206;-48
2023/06/28 05:47:04;;;;;;;8.33;2.30;;;18.00;99.90;;;;;;5197038;28;20194;-47
2023/06/28 05:49:37;;;;;;;2.50;1.60;;;18.70;99.90;;;;;;5208889;28;20180;-48
2023/06/28 05:52:08;;;;;;;3.03;1.97;;;20.00;99.90;;;;;;5209651;28;20455;-48
2023/06/28 05:54:39;;;;;;;4.13;2.07;;;21.90;99.90;;;;;;5210529;28;20865;-48
2023/06/28 05:57:09;;;;;;;2.77;1.50;;;22.50;98.50;;;;;;5209386;28;20180;-48
2023/06/28 05:59:40;;;;;;;6.30;1.43;;;23.30;97.40;;;;;;5194294;28;20238;-49
2023/06/28 06:02:10;;;;;;;6.57;1.77;;;23.60;94.10;;;;;;5204156;28;20651;-49
2023/06/28 06:04:41;;;;;;;4.63;2.23;;;22.90;92.50;;;;;;5201590;28;20192;-48
2023/06/28 06:07:12;;;;;;;9.57;1.63;;;21.60;94.50;;;;;;5206486;28;20187;-47
2023/06/28 06:09:43;;;;;;;1.83;1.47;;;20.20;98.10;;;;;;5207038;28;20191;-48
2023/06/28 06:12:14;;;;;;;6.73;2.30;;;19.80;99.90;;;;;;5208529;28;20468;-48
2023/06/28 06:14:44;;;;;;;3.33;1.97;;;20.30;99.90;;;;;;5204524;28;20217;-48
2023/06/28 06:17:15;;;;;;;5.47;2.20;;;21.40;99.40;;;;;;5201096;28;20605;-48
2023/06/28 06:19:45;;;;;;;4.23;2.50;;;21.50;98.70;;;;;;5203661;28;20255;-48
2023/06/28 06:22:16;;;;;;;5.90;2.30;;;22.10;98.30;;;;;;5204330;28;20215;-48
2023/06/28 06:24:46;;;;;;;3.93;2.07;;;22.60;93.90;;;;;;5202014;28;20589;-47
2023/06/28 06:27:17;;;;;;;5.37;1.83;;;22.20;94.20;;;;;;5208347;28;20223;-48
2023/06/28 06:29:48;;;;;;;5.00;2.50;;;22.60;93.90;;;;;;5205704;28;20202;-48
2023/06/28 06:32:18;;;;;;;2.73;1.57;;;23.30;92.40;;;;;;5210051;28;20210;-48
2023/06/28 06:34:49;;;;;;;6.57;2.37;;;24.00;87.90;;;;;;5207780;28;20208;-49
2023/06/28 06:37:20;;;;;;;4.40;1.93;;;23.00;84.90;;;;;;5203247;28;20173;-48
2023/06/28 06:39:51;;;;;;;4.37;1.90;;;22.90;88.30;;;;;;5203791;28;20179;-48
2023/06/28 06:42:22;;;;;;;3.10;1.60;;;23.80;82.80;;;;;;5209100;28;20507;-50
2023/06/28 06:44:52;;;;;;;5.50;2.20;;;24.00;81.10;;;;;;5206858;28;20556;-47
2023/06/28 06:47:23;;;;;;;2.33;2.10;;;24.90;76.70;;;;;;5204957;28;20191;-48
2023/06/28 06:49:53;;;;;;;7.37;1.90;;;27.40;66.60;;;;;;5202142;28;20192;-47
2023/06/28 06:52:24;;;;;;;2.73;1.70;;;27.00;58.30;;;;;;5199118;28;20575;-48
2023/06/28 06:54:55;;;;;;;7.43;2.57;;;26.30;58.20;;;;;;5194099;28;20293;-48
2023/06/28 06:57:25;;;;;;;3.87;1.40;;;26.20;59.70;;;;;;5192681;28;20168;-48
2023/06/28 06:59:56;;;;;;;1.90;1.50;;;26.60;56.20;;;;;;5197006;28;20184;-48
2023/06/28 07:02:27;;;;;;;4.07;2.10;;;27.10;54.70;;;;;;5211042;28;20218;-49
2023/06/28 07:04:57;;;;;;;5.57;1.80;;;27.40;53.70;;;;;;5194651;28;20183;-48
2023/06/28 07:07:28;;;;;;;3.87;1.70;;;28.20;50.80;;;;;;5204781;28;20208;-48
2023/06/28 07:09:58;;;;;;;5.73;2.07;;;26.50;52.30;;;;;;5207284;28;20168;-49
2023/06/28 07:12:29;;;;;;;3.30;2.20;;;25.10;55.50;;;;;;5204136;28;20258;-49
2023/06/28 07:15:00;;;;;;;1.93;1.70;;;26.90;54.40;;;;;;5199367;28;20303;-50
2023/06/28 07:17:31;;;;;;;1.37;1.27;;;27.70;50.40;;;;;;5206137;28;20230;-48
2023/06/28 07:20:02;;;;;;;5.93;1.53;;;27.90;50.40;;;;;;5204986;28;20430;-48
2023/06/28 07:22:32;;;;;;;1.33;1.27;;;28.10;47.10;;;;;;5207745;28;20188;-48
2023/06/28 07:25:04;;;;;;;1.40;1.30;;;26.70;49.10;;;;;;5192703;28;20183;-49
2023/06/28 07:27:35;;;;;;;1.00;1.00;;;26.60;49.30;;;;;;5202020;28;20186;-47
2023/06/28 07:30:07;;;;;;;1.93;1.83;;;27.60;49.60;;;;;;5211573;28;20438;-48
2023/06/28 07:32:39;;;;;;;1.43;1.10;;;29.00;45.90;;;;;;5193716;28;20207;-48
2023/06/28 07:35:10;;;;;;;1.20;1.10;;;30.00;44.80;;;;;;5202740;28;20455;-49
2023/06/28 07:37:40;;;;;;;4.40;1.83;;;31.00;43.50;;;;;;5204953;28;20445;-48
2023/06/28 07:40:13;;;;;;;5.70;1.50;;;29.60;43.10;;;;;;5207752;28;20187;-48
2023/06/28 07:42:44;;;;;;;1.20;1.10;;;27.30;45.70;;;;;;5200662;28;20215;-48
2023/06/28 07:45:15;;;;;;;7.57;1.27;;;25.40;49.30;;;;;;5209096;28;20907;-47
2023/06/28 07:47:45;;;;;;;3.23;1.30;;;24.00;51.80;;;;;;5210402;28;20183;-47
2023/06/28 07:50:16;;;;;;;2.00;1.33;;;23.90;54.00;;;;;;5196197;28;20190;-49
2023/06/28 07:52:46;;;;;;;2.93;1.10;;;24.60;53.10;;;;;;5201888;28;20198;-48
2023/06/28 07:55:17;;;;;;;1.53;1.43;;;24.10;53.20;;;;;;5195338;28;20200;-47
2023/06/28 07:57:48;;;;;;;4.00;2.20;;;23.70;54.20;;;;;;5209454;28;20218;-47
2023/06/28 08:00:19;;;;;;;2.43;1.30;;;23.60;54.20;;;;;;5202765;28;20739;-48
2023/06/28 08:02:49;;;;;;;2.20;1.20;;;23.20;54.00;;;;;;5207707;28;20199;-48
2023/06/28 08:05:20;;;;;;;4.53;1.23;;;23.10;55.50;;;;;;5198476;28;20434;-48
2023/06/28 08:07:54;;;;;;;1.80;1.70;;;22.70;55.50;;;;;;5200024;28;20176;-48
2023/06/28 08:10:25;;;;;;;1.20;1.20;;;22.60;56.40;;;;;;5202029;28;20843;-48
2023/06/28 08:12:56;;;;;;;3.77;1.80;;;22.80;56.30;;;;;;5197806;28;20458;-50
2023/06/28 08:15:27;;;;;;;1.80;1.30;;;24.20;54.10;;;;;;5202675;28;20199;-48
2023/06/28 08:17:58;;;;;;;4.23;1.33;;;26.60;50.20;;;;;;5204804;28;20306;-49
2023/06/28 08:20:30;;;;;;;6.73;2.23;;;26.10;49.40;;;;;;5199720;28;20426;-49
2023/06/28 08:23:00;;;;;;;4.27;2.50;;;24.90;50.50;;;;;;5207724;28;20563;-48
2023/06/28 08:25:31;;;;;;;6.07;1.47;;;24.00;53.60;;;;;;5192211;28;20434;-48
2023/06/28 08:28:01;;;;;;;4.53;1.90;;;23.60;53.50;;;;;;5208770;28;20188;-48
2023/06/28 08:30:34;;;;;;;1.60;1.40;;;22.90;55.30;;;;;;5207772;28;20282;-48
2023/06/28 08:33:04;;;;;;;1.30;1.20;;;23.10;55.30;;;;;;5206154;28;20207;-48
2023/06/28 08:35:35;;;;;;;7.47;1.80;;;23.50;55.30;;;;;;5201457;28;20485;-49
2023/06/28 08:38:06;;;;;;;1.73;1.40;;;24.10;53.30;;;;;;5200984;28;20227;-47
2023/06/28 08:40:36;;;;;;;4.00;2.20;;;24.10;54.70;;;;;;5202992;28;20173;-47
2023/06/28 08:43:12;;;;;;;3.27;1.37;;;25.80;53.70;;;;;;5202784;28;20559;-48
2023/06/28 08:45:44;;;;;;;5.13;1.40;;;28.10;48.30;;;;;;5205548;28;20642;-48
2023/06/28 08:48:16;;;;;;;2.87;1.60;;;28.50;46.30;;;;;;5204718;28;20513;-48
2023/06/28 08:50:49;;;;;;;6.53;1.57;;;27.10;47.00;;;;;;5203756;28;20445;-48
2023/06/28 08:53:21;;;;;;;3.80;1.90;;;24.90;49.50;;;;;;5196940;28;20431;-48
2023/06/28 08:55:53;;;;;;;3.23;1.83;;;23.60;52.40;;;;;;5180106;28;20513;-48
2023/06/28 08:58:24;;;;;;;2.77;1.80;;;22.80;53.80;;;;;;5202155;28;20490;-49
2023/06/28 09:00:55;;;;;;;2.73;1.67;;;22.50;55.70;;;;;;5191069;28;20482;-48
2023/06/28 09:03:26;;;;;;;4.67;2.10;;;22.80;54.50;;;;;;5208750;28;20183;-48
2023/06/28 09:05:58;;;;;;;2.33;1.30;;;23.10;54.00;;;;;;5206348;28;20463;-48
2023/06/28 09:08:29;;;;;;;2.03;1.43;;;22.70;53.10;;;;;;5206750;28;20521;-48
2023/06/28 09:11:00;;;;;;;1.73;1.27;;;22.70;54.00;;;;;;5205255;28;20863;-47
2023/06/28 09:13:31;;;;;;;1.10;1.10;;;22.70;52.60;;;;;;5206006;28;20206;-49
2023/06/28 09:16:05;;;;;;;1.37;1.27;;;22.80;52.90;;;;;;5193729;28;20745;-48
2023/06/28 09:18:36;;;;;;;2.00;1.43;;;22.70;52.00;;;;;;5210231;28;20437;-48
2023/06/28 09:21:07;;;;;;;2.33;1.10;;;22.70;53.30;;;;;;5200146;28;20438;-48
2023/06/28 09:23:38;;;;;;;2.40;1.70;;;23.10;53.10;;;;;;5197420;28;20775;-48
2023/06/28 09:26:10;;;;;;;13.37;3.20;;;23.20;54.30;;;;;;5210079;28;20184;-49
2023/06/28 09:28:41;;;;;;;1.67;1.57;;;23.00;55.50;;;;;;5207787;28;20556;-48
2023/06/28 09:31:18;;;;;;;6.80;2.03;;;23.00;54.30;;;;;;5209637;28;20476;-48
2023/06/28 09:33:53;;;;;;;3.37;2.10;;;23.10;53.10;;;;;;5204777;28;20191;-48
2023/06/28 09:36:24;;;;;;;1.10;1.10;;;23.10;54.20;;;;;;5209682;28;20540;-48
2023/06/28 09:38:56;;;;;;;4.30;1.93;;;23.10;53.20;;;;;;5206779;28;20510;-47
2023/06/28 09:41:42;;;;;;;8.73;3.60;;;23.10;53.20;;;;;;5208254;28;20200;-48
2023/06/28 09:44:13;;;;;;;6.97;2.40;;;23.20;52.70;;;;;;5199042;28;20429;-49
2023/06/28 09:46:47;;;;;;;2.17;1.77;;;22.90;52.50;;;;;;5203693;28;20443;-49
2023/06/28 09:49:22;;;;;;;2.70;1.27;;;22.40;53.20;;;;;;5207879;28;20183;-48
2023/06/28 09:52:04;;;;;;;2.57;1.20;;;22.40;53.90;;;;;;5205402;28;20434;-49
2023/06/28 09:54:44;;;;;;;3.63;1.20;;;22.40;53.60;;;;;;5200752;28;20472;-49
2023/06/28 09:57:17;;;;;;;3.13;1.63;;;22.30;53.40;;;;;;5196856;28;20469;-49
2023/06/28 09:59:49;;;;;;;1.50;1.40;;;22.50;54.40;;;;;;5207831;28;20787;-49
2023/06/28 10:02:22;;;;;;;1.63;1.40;;;22.90;54.20;;;;;;5207428;28;20505;-49
2023/06/28 10:04:54;;;;;;;3.77;1.07;;;23.10;52.10;;;;;;5202949;28;20466;-48
2023/06/28 10:07:26;;;;;;;2.13;1.83;;;22.30;53.10;;;;;;5194665;28;20919;-50
2023/06/28 10:09:57;;;;;;;2.80;1.80;;;22.50;54.10;;;;;;5187823;28;20493;-48
2023/06/28 10:12:30;;;;;;;3.10;1.13;;;23.30;54.50;;;;;;5198370;28;20457;-49
2023/06/28 10:15:12;;;;;;;5.50;1.67;;;23.80;51.80;;;;;;5201713;28;20283;-48
2023/06/28 10:17:43;;;;;;;2.30;1.93;;;23.70;52.30;;;;;;5206858;28;20513;-49
2023/06/28 10:20:13;;;;;;;2.50;1.70;;;23.40;51.20;;;;;;5198639;28;20448;-49
2023/06/28 10:22:45;;;;;;;3.27;1.30;;;22.90;52.30;;;;;;5204725;28;20546;-49
2023/06/28 10:25:17;;;;;;;2.40;1.27;;;22.80;53.00;;;;;;5207482;28;20188;-50
2023/06/28 10:27:48;;;;;;;3.23;1.07;;;23.10;52.60;;;;;;5165597;28;20592;-48
2023/06/28 10:30:21;;;;;;;1.23;1.13;;;23.10;52.50;;;;;;5198225;28;20445;-48
2023/06/28 10:32:53;;;;;;;5.90;1.77;;;23.40;52.50;;;;;;5196270;28;20469;-49
2023/06/28 10:35:25;;;;;;;1.33;1.30;;;23.50;51.90;;;;;;5201242;28;20966;-48
2023/06/28 10:37:57;;;;;;;12.17;6.93;;;23.20;51.70;;;;;;5188180;28;20514;-49
2023/06/28 10:40:28;;;;;;;10.90;2.50;;;23.20;53.20;;;;;;5205083;28;20755;-48
2023/06/28 10:42:58;;;;;;;2.10;2.00;;;23.40;52.20;;;;;;5256071;22;20496;-48
2023/06/28 10:45:36;;;;;;;4.30;2.10;;;23.50;53.60;;;;;;5232079;28;20752;-47
2023/06/28 10:48:10;;;;;;;6.30;2.03;;;23.20;52.10;;;;;;5232101;28;20243;-47
2023/06/28 10:50:42;;;;;;;11.10;2.07;;;23.40;52.80;;;;;;5238516;28;20440;-47
2023/06/28 10:53:24;;;;;;;6.37;2.50;;;23.40;51.90;;;;;;5230576;28;20460;-48
2023/06/28 10:56:05;;;;;;;1.67;1.57;;;23.30;52.50;;;;;;5218735;28;20466;-48
2023/06/28 10:58:41;;;;;;;3.83;1.20;;;23.40;53.50;;;;;;5222148;28;20432;-48
2023/06/28 11:01:31;;;;;;;1.37;1.27;;;23.40;53.00;;;;;;5200727;28;20786;-47
2023/06/28 11:04:12;;;;;;;1.23;1.10;;;23.20;52.50;;;;;;5225538;28;20425;-46
2023/06/28 11:06:44;;;;;;;5.13;1.97;;;23.10;52.70;;;;;;5228634;28;20443;-47
2023/06/28 11:09:19;;;;;;;1.53;1.50;;;23.10;53.10;;;;;;5215251;28;20495;-47
2023/06/28 11:11:56;;;;;;;4.00;2.37;;;23.10;53.40;;;;;;5217274;28;20461;-46
2023/06/28 11:14:30;;;;;;;2.93;2.10;;;22.90;53.10;;;;;;5221372;28;20450;-48
2023/06/28 11:17:14;;;;;;;4.00;1.60;;;23.00;52.40;;;;;;5212589;28;20472;-46
2023/06/28 11:19:45;;;;;;;1.53;1.10;;;23.20;53.10;;;;;;5207246;28;20793;-47
2023/06/28 11:22:16;;;;;;;4.20;2.23;;;23.30;52.30;;;;;;5235460;28;20421;-47
2023/06/28 11:24:47;;;;;;;4.50;2.80;;;23.50;52.60;;;;;;5236848;28;20436;-47
2023/06/28 11:27:21;;;;;;;1.50;1.40;;;23.50;52.50;;;;;;5224882;28;20726;-47
2023/06/28 11:29:51;;;;;;;4.07;1.67;;;23.20;52.60;;;;;;5211128;28;20186;-47
2023/06/28 11:32:31;;;;;;;2.30;2.07;;;23.10;52.90;;;;;;5225163;28;20451;-47
2023/06/28 11:35:06;;;;;;;2.00;1.60;;;23.10;53.20;;;;;;5215889;28;20210;-47
2023/06/28 11:37:38;;;;;;;7.93;4.30;;;23.20;52.70;;;;;;5240341;28;20409;-49
2023/06/28 11:40:10;;;;;;;3.20;1.40;;;23.40;52.20;;;;;;5241334;28;20425;-47
2023/06/28 11:42:45;;;;;;;1.20;1.10;;;23.20;52.80;;;;;;5198693;28;20584;-47
2023/06/28 11:45:20;;;;;;;7.70;2.20;;;23.40;52.90;;;;;;5234462;28;20440;-47
2023/06/28 11:47:50;;;;;;;1.97;1.87;;;23.50;53.00;;;;;;5222104;28;20511;-47
2023/06/28 11:50:22;;;;;;;1.73;1.10;;;23.50;53.10;;;;;;5230592;28;20436;-47
2023/06/28 11:52:53;;;;;;;4.90;2.50;;;23.80;53.00;;;;;;5217151;28;20210;-47
2023/06/28 11:55:27;;;;;;;7.27;3.00;;;23.80;52.70;;;;;;5205639;28;20988;-47
2023/06/28 11:57:58;;;;;;;2.20;1.60;;;23.90;52.40;;;;;;5220938;28;20649;-47
2023/06/28 12:00:39;;;;;;;1.57;1.53;;;23.90;52.30;;;;;;5231244;28;20439;-48
2023/06/28 12:03:10;;;;;;;5.07;2.07;;;24.00;52.40;;;;;;5226721;28;20211;-47
2023/06/28 12:05:52;;;;;;;3.17;1.60;;;23.90;52.10;;;;;;5224513;28;20973;-47
2023/06/28 12:08:23;;;;;;;1.33;1.23;;;23.60;52.60;;;;;;5212734;28;20183;-46
2023/06/28 12:10:55;;;;;;;5.70;2.90;;;23.80;53.10;;;;;;5232758;28;20442;-47
2023/06/28 12:13:27;;;;;;;6.97;2.83;;;23.60;53.40;;;;;;5197825;28;20253;-47
2023/06/28 12:16:09;;;;;;;13.13;2.50;;;23.20;53.90;;;;;;5211834;28;20461;-48
2023/06/28 12:19:02;;;;;;;1.43;1.33;;;23.00;54.30;;;;;;5204145;28;20433;-47
2023/06/28 12:21:34;;;;;;;1.23;1.10;;;23.00;55.00;;;;;;5202190;28;20540;-50
2023/06/28 12:24:13;;;;;;;2.10;1.30;;;23.20;53.90;;;;;;5208164;28;20468;-47
2023/06/28 12:26:46;;;;;;;1.57;1.47;;;23.30;54.40;;;;;;5238917;28;20489;-48
2023/06/28 12:29:31;;;;;;;5.60;1.40;;;23.30;54.20;;;;;;5233349;28;20425;-46
2023/06/28 12:32:11;;;;;;;1.20;1.20;;;23.20;53.70;;;;;;5213800;28;20480;-47
2023/06/28 12:34:50;;;;;;;5.03;1.50;;;22.90;54.10;;;;;;5214363;28;20449;-46
2023/06/28 12:37:34;;;;;;;2.90;1.70;;;22.90;55.00;;;;;;5237174;28;20421;-48
2023/06/28 12:40:05;;;;;;;1.40;1.30;;;23.20;55.20;;;;;;5237825;28;20512;-46
2023/06/28 12:42:36;;;;;;;4.70;1.80;;;23.30;54.40;;;;;;5224728;28;20469;-47
2023/06/28 12:45:07;;;;;;;1.50;1.40;;;23.30;53.90;;;;;;5228746;28;20444;-48
2023/06/28 12:47:38;;;;;;;3.40;1.50;;;23.20;54.00;;;;;;5217439;28;20286;-48
2023/06/28 12:50:09;;;;;;;2.17;1.20;;;23.40;54.80;;;;;;5236719;28;20803;-47
2023/06/28 12:52:39;;;;;;;1.50;1.37;;;23.50;54.10;;;;;;5244439;28;20439;-48
2023/06/28 12:55:10;;;;;;;2.50;1.83;;;23.60;53.90;;;;;;5214000;28;20268;-47
2023/06/28 12:57:41;;;;;;;0.93;0.93;;;23.60;53.70;;;;;;5228963;28;20190;-46
2023/06/28 13:00:12;;;;;;;1.33;1.23;;;23.80;53.90;;;;;;5226581;28;20182;-48
2023/06/28 13:02:43;;;;;;;1.70;1.60;;;23.80;52.90;;;;;;5220651;28;20202;-47
2023/06/28 13:05:13;;;;;;;10.73;1.77;;;23.70;53.00;;;;;;5218665;28;20512;-47
2023/06/28 13:07:44;;;;;;;2.60;1.37;;;23.60;53.00;;;;;;5203461;28;20182;-48
2023/06/28 13:10:15;;;;;;;4.17;1.77;;;23.90;53.20;;;;;;5242228;28;20182;-46